sensor_id;sensor_type;location;lat;lon;timestamp;pressure;altitude;pressure_sealevel;temperature;humidity
41886;BME280;27567;43.084;25.616;2022-08-19T00:01:49;97801.72;;;23.26;100.00
41886;BME280;27567;43.084;25.616;2022-08-19T00:04:34;97805.41;;;23.17;100.00
41886;BME280;27567;43.084;25.616;2022-08-19T00:07:20;97805.44;;;22.97;100.00
41886;BME280;27567;43.084;25.616;2022-08-19T00:10:07;97817.53;;;22.91;100.00
41886;BME280;27567;43.084;25.616;2022-08-19T00:12:52;97823.16;;;22.81;100.00
41886;BME280;27567;43.084;25.616;2022-08-19T00:15:36;97807.81;;;22.85;100.00
41886;BME280;27567;43.084;25.616;2022-08-19T00:18:21;97809.78;;;22.99;100.00
41886;BME280;27567;43.084;25.616;2022-08-19T00:21:05;97808.88;;;23.03;100.00
41886;BME280;27567;43.084;25.616;2022-08-19T00:23:54;97797.28;;;23.11;100.00
41886;BME280;27567;43.084;25.616;2022-08-19T00:26:42;97803.66;;;23.26;100.00
41886;BME280;27567;43.084;25.616;2022-08-19T00:29:26;97794.16;;;23.18;100.00
41886;BME280;27567;43.084;25.616;2022-08-19T00:32:10;97794.03;;;23.09;100.00
41886;BME280;27567;43.084;25.616;2022-08-19T00:34:54;97796.88;;;22.85;100.00
41886;BME280;27567;43.084;25.616;2022-08-19T00:37:39;97796.28;;;22.69;100.00
41886;BME280;27567;43.084;25.616;2022-08-19T00:40:26;97792.22;;;22.42;100.00
41886;BME280;27567;43.084;25.616;2022-08-19T00:43:11;97789.91;;;22.30;100.00
41886;BME280;27567;43.084;25.616;2022-08-19T00:45:56;97803.69;;;22.20;100.00
41886;BME280;27567;43.084;25.616;2022-08-19T00:48:40;97798.88;;;22.12;100.00
41886;BME280;27567;43.084;25.616;2022-08-19T00:51:26;97797.41;;;21.95;100.00
41886;BME280;27567;43.084;25.616;2022-08-19T00:54:12;97796.03;;;21.68;100.00
41886;BME280;27567;43.084;25.616;2022-08-19T00:56:58;97793.41;;;21.58;100.00
41886;BME280;27567;43.084;25.616;2022-08-19T00:59:45;97799.28;;;21.70;100.00
41886;BME280;27567;43.084;25.616;2022-08-19T01:02:31;97800.00;;;21.81;100.00
41886;BME280;27567;43.084;25.616;2022-08-19T01:05:18;97795.31;;;21.87;100.00
41886;BME280;27567;43.084;25.616;2022-08-19T01:08:05;97795.50;;;21.96;100.00
41886;BME280;27567;43.084;25.616;2022-08-19T01:10:53;97799.69;;;22.12;100.00
41886;BME280;27567;43.084;25.616;2022-08-19T01:13:38;97798.75;;;21.98;100.00
41886;BME280;27567;43.084;25.616;2022-08-19T01:16:25;97802.81;;;22.00;100.00
41886;BME280;27567;43.084;25.616;2022-08-19T01:19:17;97806.00;;;22.07;100.00
41886;BME280;27567;43.084;25.616;2022-08-19T01:25:07;97796.91;;;22.17;100.00
41886;BME280;27567;43.084;25.616;2022-08-19T01:27:52;97805.97;;;22.13;100.00
41886;BME280;27567;43.084;25.616;2022-08-19T01:30:37;97812.84;;;22.05;100.00
41886;BME280;27567;43.084;25.616;2022-08-19T01:33:21;97800.59;;;21.78;100.00
41886;BME280;27567;43.084;25.616;2022-08-19T01:36:09;97807.97;;;21.77;100.00
41886;BME280;27567;43.084;25.616;2022-08-19T01:38:54;97807.81;;;21.64;100.00
41886;BME280;27567;43.084;25.616;2022-08-19T01:41:39;97811.13;;;21.55;100.00
41886;BME280;27567;43.084;25.616;2022-08-19T01:44:23;97808.06;;;21.67;100.00
41886;BME280;27567;43.084;25.616;2022-08-19T01:47:07;97813.00;;;21.65;100.00
41886;BME280;27567;43.084;25.616;2022-08-19T01:49:53;97806.31;;;21.47;100.00
41886;BME280;27567;43.084;25.616;2022-08-19T01:52:39;97809.31;;;21.45;100.00
41886;BME280;27567;43.084;25.616;2022-08-19T01:55:24;97819.28;;;21.60;100.00
41886;BME280;27567;43.084;25.616;2022-08-19T01:58:13;97823.03;;;21.70;100.00
41886;BME280;27567;43.084;25.616;2022-08-19T02:00:58;97821.16;;;21.95;100.00
41886;BME280;27567;43.084;25.616;2022-08-19T02:03:42;97818.97;;;21.97;100.00
41886;BME280;27567;43.084;25.616;2022-08-19T02:06:27;97813.72;;;22.00;100.00
41886;BME280;27567;43.084;25.616;2022-08-19T02:09:11;97826.91;;;21.93;100.00
41886;BME280;27567;43.084;25.616;2022-08-19T02:11:55;97829.16;;;21.86;100.00
41886;BME280;27567;43.084;25.616;2022-08-19T02:14:40;97819.41;;;21.80;100.00
41886;BME280;27567;43.084;25.616;2022-08-19T02:17:27;97827.13;;;21.67;100.00
41886;BME280;27567;43.084;25.616;2022-08-19T02:20:12;97826.38;;;21.61;100.00
41886;BME280;27567;43.084;25.616;2022-08-19T02:22:56;97824.09;;;21.39;100.00
41886;BME280;27567;43.084;25.616;2022-08-19T02:25:41;97820.69;;;21.23;100.00
41886;BME280;27567;43.084;25.616;2022-08-19T02:28:25;97828.50;;;20.95;100.00
41886;BME280;27567;43.084;25.616;2022-08-19T02:31:16;97841.38;;;20.84;100.00
41886;BME280;27567;43.084;25.616;2022-08-19T02:34:01;97843.53;;;20.87;100.00
41886;BME280;27567;43.084;25.616;2022-08-19T02:36:45;97834.84;;;20.80;100.00
41886;BME280;27567;43.084;25.616;2022-08-19T02:39:29;97836.56;;;20.61;100.00
41886;BME280;27567;43.084;25.616;2022-08-19T02:42:13;97840.13;;;20.56;100.00
41886;BME280;27567;43.084;25.616;2022-08-19T02:44:57;97843.41;;;20.53;100.00
41886;BME280;27567;43.084;25.616;2022-08-19T02:47:41;97845.06;;;20.43;100.00
41886;BME280;27567;43.084;25.616;2022-08-19T02:50:25;97849.72;;;20.33;100.00
41886;BME280;27567;43.084;25.616;2022-08-19T02:53:09;97851.28;;;20.49;100.00
41886;BME280;27567;43.084;25.616;2022-08-19T02:55:54;97841.22;;;20.50;100.00
41886;BME280;27567;43.084;25.616;2022-08-19T02:58:38;97845.84;;;20.49;100.00
41886;BME280;27567;43.084;25.616;2022-08-19T03:01:23;97855.88;;;20.59;100.00
41886;BME280;27567;43.084;25.616;2022-08-19T03:04:11;97858.16;;;20.36;100.00
41886;BME280;27567;43.084;25.616;2022-08-19T03:06:55;97864.69;;;20.35;100.00
41886;BME280;27567;43.084;25.616;2022-08-19T03:09:39;97863.56;;;20.47;100.00
41886;BME280;27567;43.084;25.616;2022-08-19T03:12:23;97865.81;;;20.34;100.00
41886;BME280;27567;43.084;25.616;2022-08-19T03:15:08;97863.66;;;20.21;100.00
41886;BME280;27567;43.084;25.616;2022-08-19T03:17:52;97857.38;;;20.25;100.00
41886;BME280;27567;43.084;25.616;2022-08-19T03:20:44;97866.88;;;20.33;100.00
41886;BME280;27567;43.084;25.616;2022-08-19T03:23:28;97856.81;;;20.34;100.00
41886;BME280;27567;43.084;25.616;2022-08-19T03:26:12;97862.25;;;20.39;100.00
41886;BME280;27567;43.084;25.616;2022-08-19T03:29:01;97867.16;;;20.26;100.00
41886;BME280;27567;43.084;25.616;2022-08-19T03:31:46;97866.34;;;20.31;100.00
41886;BME280;27567;43.084;25.616;2022-08-19T03:34:33;97877.19;;;20.36;100.00
41886;BME280;27567;43.084;25.616;2022-08-19T03:37:18;97875.84;;;20.39;100.00
41886;BME280;27567;43.084;25.616;2022-08-19T03:40:03;97876.69;;;20.29;100.00
41886;BME280;27567;43.084;25.616;2022-08-19T03:42:47;97886.69;;;20.49;100.00
41886;BME280;27567;43.084;25.616;2022-08-19T03:45:31;97882.88;;;20.50;100.00
41886;BME280;27567;43.084;25.616;2022-08-19T03:51:01;97893.22;;;20.53;100.00
41886;BME280;27567;43.084;25.616;2022-08-19T03:53:45;97894.84;;;20.54;100.00
41886;BME280;27567;43.084;25.616;2022-08-19T03:56:30;97895.13;;;20.58;100.00
41886;BME280;27567;43.084;25.616;2022-08-19T03:59:21;97901.06;;;20.65;100.00
41886;BME280;27567;43.084;25.616;2022-08-19T04:02:09;97905.16;;;20.63;100.00
41886;BME280;27567;43.084;25.616;2022-08-19T04:04:55;97909.50;;;20.69;100.00
41886;BME280;27567;43.084;25.616;2022-08-19T04:07:39;97915.22;;;20.62;100.00
41886;BME280;27567;43.084;25.616;2022-08-19T04:10:23;97921.19;;;20.75;100.00
41886;BME280;27567;43.084;25.616;2022-08-19T04:13:08;97909.22;;;20.81;100.00
41886;BME280;27567;43.084;25.616;2022-08-19T04:15:53;97922.53;;;20.87;100.00
41886;BME280;27567;43.084;25.616;2022-08-19T04:18:38;97924.41;;;20.92;100.00
41886;BME280;27567;43.084;25.616;2022-08-19T04:21:25;97923.53;;;21.07;100.00
41886;BME280;27567;43.084;25.616;2022-08-19T04:24:10;97920.22;;;21.15;100.00
41886;BME280;27567;43.084;25.616;2022-08-19T04:26:54;97918.84;;;21.18;100.00
41886;BME280;27567;43.084;25.616;2022-08-19T04:29:39;97921.03;;;21.11;100.00
41886;BME280;27567;43.084;25.616;2022-08-19T04:32:24;97922.63;;;21.22;100.00
41886;BME280;27567;43.084;25.616;2022-08-19T04:35:08;97917.72;;;21.24;100.00
41886;BME280;27567;43.084;25.616;2022-08-19T04:37:51;97918.19;;;21.31;100.00
41886;BME280;27567;43.084;25.616;2022-08-19T04:40:47;97911.56;;;21.48;100.00
41886;BME280;27567;43.084;25.616;2022-08-19T04:43:50;97913.63;;;21.22;100.00
41886;BME280;27567;43.084;25.616;2022-08-19T04:46:35;97909.78;;;21.23;100.00
41886;BME280;27567;43.084;25.616;2022-08-19T04:49:21;97913.31;;;21.28;100.00
41886;BME280;27567;43.084;25.616;2022-08-19T04:52:05;97914.69;;;21.26;100.00
41886;BME280;27567;43.084;25.616;2022-08-19T04:54:49;97919.75;;;21.43;100.00
41886;BME280;27567;43.084;25.616;2022-08-19T04:57:33;97913.31;;;21.68;100.00
41886;BME280;27567;43.084;25.616;2022-08-19T05:00:17;97917.78;;;21.94;100.00
41886;BME280;27567;43.084;25.616;2022-08-19T05:03:01;97914.47;;;22.26;100.00
41886;BME280;27567;43.084;25.616;2022-08-19T05:05:47;97913.75;;;22.40;100.00
41886;BME280;27567;43.084;25.616;2022-08-19T05:08:32;97924.63;;;22.50;100.00
41886;BME280;27567;43.084;25.616;2022-08-19T05:11:26;97918.84;;;22.76;100.00
41886;BME280;27567;43.084;25.616;2022-08-19T05:14:11;97921.16;;;22.88;100.00
41886;BME280;27567;43.084;25.616;2022-08-19T05:17:00;97924.78;;;23.02;100.00
41886;BME280;27567;43.084;25.616;2022-08-19T05:19:44;97936.66;;;23.17;100.00
41886;BME280;27567;43.084;25.616;2022-08-19T05:22:47;97919.94;;;23.18;100.00
41886;BME280;27567;43.084;25.616;2022-08-19T05:25:31;97922.56;;;23.29;100.00
41886;BME280;27567;43.084;25.616;2022-08-19T05:28:15;97926.69;;;23.45;100.00
41886;BME280;27567;43.084;25.616;2022-08-19T05:30:59;97932.53;;;23.58;100.00
41886;BME280;27567;43.084;25.616;2022-08-19T05:33:43;97919.06;;;23.80;100.00
41886;BME280;27567;43.084;25.616;2022-08-19T05:36:34;97923.94;;;23.64;100.00
41886;BME280;27567;43.084;25.616;2022-08-19T05:39:26;97939.44;;;23.88;100.00
41886;BME280;27567;43.084;25.616;2022-08-19T05:42:11;97938.72;;;24.15;100.00
41886;BME280;27567;43.084;25.616;2022-08-19T05:44:55;97938.81;;;24.10;100.00
41886;BME280;27567;43.084;25.616;2022-08-19T05:47:40;97935.72;;;24.45;100.00
41886;BME280;27567;43.084;25.616;2022-08-19T05:50:24;97934.84;;;24.50;100.00
41886;BME280;27567;43.084;25.616;2022-08-19T05:53:10;97928.94;;;24.70;100.00
41886;BME280;27567;43.084;25.616;2022-08-19T05:55:54;97930.00;;;24.74;100.00
41886;BME280;27567;43.084;25.616;2022-08-19T05:58:38;97932.50;;;24.71;100.00
41886;BME280;27567;43.084;25.616;2022-08-19T06:01:22;97932.91;;;24.92;100.00
41886;BME280;27567;43.084;25.616;2022-08-19T06:04:06;97938.50;;;25.01;100.00
41886;BME280;27567;43.084;25.616;2022-08-19T06:06:52;97935.13;;;25.04;100.00
41886;BME280;27567;43.084;25.616;2022-08-19T06:09:37;97943.69;;;25.02;100.00
41886;BME280;27567;43.084;25.616;2022-08-19T06:12:21;97939.75;;;25.45;100.00
41886;BME280;27567;43.084;25.616;2022-08-19T06:15:10;97940.31;;;25.42;100.00
41886;BME280;27567;43.084;25.616;2022-08-19T06:17:54;97933.91;;;25.61;100.00
41886;BME280;27567;43.084;25.616;2022-08-19T06:20:45;97938.41;;;25.79;100.00
41886;BME280;27567;43.084;25.616;2022-08-19T06:23:38;97934.91;;;26.10;100.00
41886;BME280;27567;43.084;25.616;2022-08-19T06:26:23;97929.97;;;26.21;100.00
41886;BME280;27567;43.084;25.616;2022-08-19T06:29:10;97924.69;;;26.34;100.00
41886;BME280;27567;43.084;25.616;2022-08-19T06:31:55;97934.19;;;26.59;100.00
41886;BME280;27567;43.084;25.616;2022-08-19T06:34:40;97927.00;;;26.49;100.00
41886;BME280;27567;43.084;25.616;2022-08-19T06:37:24;97931.28;;;26.96;100.00
41886;BME280;27567;43.084;25.616;2022-08-19T06:40:09;97929.66;;;27.12;100.00
41886;BME280;27567;43.084;25.616;2022-08-19T06:42:54;97935.94;;;26.95;100.00
41886;BME280;27567;43.084;25.616;2022-08-19T06:45:39;97934.19;;;26.99;100.00
41886;BME280;27567;43.084;25.616;2022-08-19T06:48:23;97935.19;;;27.30;100.00
41886;BME280;27567;43.084;25.616;2022-08-19T06:51:07;97933.91;;;27.89;100.00
41886;BME280;27567;43.084;25.616;2022-08-19T06:53:53;97927.25;;;27.99;100.00
41886;BME280;27567;43.084;25.616;2022-08-19T06:56:37;97930.69;;;27.87;100.00
41886;BME280;27567;43.084;25.616;2022-08-19T06:59:29;97928.41;;;27.98;100.00
41886;BME280;27567;43.084;25.616;2022-08-19T07:02:19;97930.00;;;28.16;100.00
41886;BME280;27567;43.084;25.616;2022-08-19T07:05:04;97925.63;;;27.98;100.00
41886;BME280;27567;43.084;25.616;2022-08-19T07:07:48;97926.91;;;28.00;100.00
41886;BME280;27567;43.084;25.616;2022-08-19T07:10:33;97925.00;;;28.01;100.00
41886;BME280;27567;43.084;25.616;2022-08-19T07:13:18;97918.44;;;28.32;100.00
41886;BME280;27567;43.084;25.616;2022-08-19T07:16:07;97920.28;;;28.58;100.00
41886;BME280;27567;43.084;25.616;2022-08-19T07:18:55;97921.63;;;28.43;100.00
41886;BME280;27567;43.084;25.616;2022-08-19T07:21:40;97923.47;;;28.69;100.00
41886;BME280;27567;43.084;25.616;2022-08-19T07:24:26;97925.31;;;28.94;100.00
41886;BME280;27567;43.084;25.616;2022-08-19T07:27:13;97924.00;;;28.62;100.00
41886;BME280;27567;43.084;25.616;2022-08-19T07:29:58;97926.38;;;28.81;100.00
41886;BME280;27567;43.084;25.616;2022-08-19T07:32:42;97923.81;;;28.67;100.00
41886;BME280;27567;43.084;25.616;2022-08-19T07:35:26;97925.53;;;28.80;100.00
41886;BME280;27567;43.084;25.616;2022-08-19T07:38:12;97932.00;;;29.15;100.00
41886;BME280;27567;43.084;25.616;2022-08-19T07:40:56;97931.41;;;29.30;100.00
41886;BME280;27567;43.084;25.616;2022-08-19T07:43:40;97938.31;;;29.45;100.00
41886;BME280;27567;43.084;25.616;2022-08-19T07:46:24;97933.19;;;29.56;100.00
41886;BME280;27567;43.084;25.616;2022-08-19T07:49:12;97937.28;;;29.50;100.00
41886;BME280;27567;43.084;25.616;2022-08-19T07:52:05;97934.59;;;29.62;100.00
41886;BME280;27567;43.084;25.616;2022-08-19T07:54:50;97938.72;;;30.11;100.00
41886;BME280;27567;43.084;25.616;2022-08-19T07:57:34;97942.41;;;29.81;100.00
41886;BME280;27567;43.084;25.616;2022-08-19T08:00:18;97935.03;;;29.85;100.00
41886;BME280;27567;43.084;25.616;2022-08-19T08:03:01;97932.00;;;30.33;100.00
41886;BME280;27567;43.084;25.616;2022-08-19T08:05:46;97918.09;;;30.92;100.00
41886;BME280;27567;43.084;25.616;2022-08-19T08:08:49;97925.06;;;31.14;98.81
41886;BME280;27567;43.084;25.616;2022-08-19T08:11:53;97915.19;;;31.00;97.74
41886;BME280;27567;43.084;25.616;2022-08-19T08:14:47;97915.53;;;30.74;96.56
41886;BME280;27567;43.084;25.616;2022-08-19T08:17:32;97914.50;;;30.66;93.46
41886;BME280;27567;43.084;25.616;2022-08-19T08:20:16;97923.41;;;30.59;94.38
41886;BME280;27567;43.084;25.616;2022-08-19T08:23:01;97918.19;;;30.58;98.05
41886;BME280;27567;43.084;25.616;2022-08-19T08:26:04;97917.91;;;30.38;98.71
41886;BME280;27567;43.084;25.616;2022-08-19T08:28:48;97924.69;;;30.28;98.19
41886;BME280;27567;43.084;25.616;2022-08-19T08:31:33;97909.56;;;30.59;96.36
41886;BME280;27567;43.084;25.616;2022-08-19T08:34:17;97914.88;;;30.65;97.37
41886;BME280;27567;43.084;25.616;2022-08-19T08:37:01;97908.50;;;30.89;94.60
41886;BME280;27567;43.084;25.616;2022-08-19T08:39:45;97914.75;;;30.61;97.30
41886;BME280;27567;43.084;25.616;2022-08-19T08:42:34;97916.69;;;31.10;95.72
41886;BME280;27567;43.084;25.616;2022-08-19T08:45:20;97911.28;;;31.01;97.61
41886;BME280;27567;43.084;25.616;2022-08-19T08:48:16;97918.66;;;30.72;99.49
41886;BME280;27567;43.084;25.616;2022-08-19T08:51:05;97913.03;;;30.94;97.30
41886;BME280;27567;43.084;25.616;2022-08-19T08:53:52;97901.03;;;30.65;94.42
41886;BME280;27567;43.084;25.616;2022-08-19T08:56:39;97902.28;;;30.92;92.53
41886;BME280;27567;43.084;25.616;2022-08-19T08:59:28;97901.56;;;31.20;89.56
41886;BME280;27567;43.084;25.616;2022-08-19T09:02:17;97894.50;;;31.35;84.72
41886;BME280;27567;43.084;25.616;2022-08-19T09:05:01;97906.03;;;31.66;82.77
41886;BME280;27567;43.084;25.616;2022-08-19T09:10:39;97902.19;;;30.88;86.28
41886;BME280;27567;43.084;25.616;2022-08-19T09:14:02;97892.50;;;30.82;87.66
41886;BME280;27567;43.084;25.616;2022-08-19T09:16:53;97895.72;;;30.84;85.02
41886;BME280;27567;43.084;25.616;2022-08-19T09:22:36;97898.91;;;30.49;83.94
41886;BME280;27567;43.084;25.616;2022-08-19T09:25:22;97901.09;;;30.31;85.69
41886;BME280;27567;43.084;25.616;2022-08-19T09:28:07;97891.09;;;30.51;86.91
41886;BME280;27567;43.084;25.616;2022-08-19T09:30:51;97894.44;;;30.82;81.67
41886;BME280;27567;43.084;25.616;2022-08-19T09:33:37;97903.31;;;30.38;84.13
41886;BME280;27567;43.084;25.616;2022-08-19T09:36:22;97896.66;;;30.76;84.74
41886;BME280;27567;43.084;25.616;2022-08-19T09:39:07;97892.59;;;30.86;84.65
41886;BME280;27567;43.084;25.616;2022-08-19T09:41:52;97887.06;;;30.86;85.01
41886;BME280;27567;43.084;25.616;2022-08-19T09:44:38;97896.63;;;31.01;86.17
41886;BME280;27567;43.084;25.616;2022-08-19T09:47:21;97891.88;;;31.26;84.45
41886;BME280;27567;43.084;25.616;2022-08-19T09:50:08;97874.84;;;30.99;86.50
41886;BME280;27567;43.084;25.616;2022-08-19T09:52:53;97888.53;;;31.21;86.35
41886;BME280;27567;43.084;25.616;2022-08-19T09:55:42;97892.59;;;31.52;83.97
41886;BME280;27567;43.084;25.616;2022-08-19T09:58:26;97882.53;;;31.18;82.68
41886;BME280;27567;43.084;25.616;2022-08-19T10:01:23;97878.19;;;30.93;81.51
41886;BME280;27567;43.084;25.616;2022-08-19T10:04:08;97884.47;;;31.30;82.79
41886;BME280;27567;43.084;25.616;2022-08-19T10:06:55;97884.59;;;32.07;79.86
41886;BME280;27567;43.084;25.616;2022-08-19T10:09:39;97881.50;;;31.52;76.28
41886;BME280;27567;43.084;25.616;2022-08-19T10:12:24;97884.31;;;31.96;76.39
41886;BME280;27567;43.084;25.616;2022-08-19T10:15:08;97879.78;;;33.20;68.34
41886;BME280;27567;43.084;25.616;2022-08-19T10:17:52;97874.84;;;34.35;65.81
41886;BME280;27567;43.084;25.616;2022-08-19T10:20:37;97859.09;;;36.89;51.71
41886;BME280;27567;43.084;25.616;2022-08-19T10:23:21;97866.03;;;35.71;52.98
41886;BME280;27567;43.084;25.616;2022-08-19T10:26:06;97856.06;;;36.07;52.04
41886;BME280;27567;43.084;25.616;2022-08-19T10:28:50;97860.78;;;38.11;44.50
41886;BME280;27567;43.084;25.616;2022-08-19T10:31:35;97852.97;;;40.65;36.74
41886;BME280;27567;43.084;25.616;2022-08-19T10:34:20;97852.63;;;39.25;38.32
41886;BME280;27567;43.084;25.616;2022-08-19T10:37:05;97866.72;;;39.96;37.14
41886;BME280;27567;43.084;25.616;2022-08-19T10:39:49;97861.91;;;41.29;34.70
41886;BME280;27567;43.084;25.616;2022-08-19T10:42:34;97857.09;;;44.05;29.98
41886;BME280;27567;43.084;25.616;2022-08-19T10:45:19;97846.13;;;43.90;29.48
41886;BME280;27567;43.084;25.616;2022-08-19T10:48:06;97850.88;;;42.04;31.63
41886;BME280;27567;43.084;25.616;2022-08-19T10:50:50;97851.56;;;43.44;29.37
41886;BME280;27567;43.084;25.616;2022-08-19T10:54:06;97863.84;;;42.93;28.14
41886;BME280;27567;43.084;25.616;2022-08-19T10:56:50;97841.53;;;43.23;28.16
41886;BME280;27567;43.084;25.616;2022-08-19T10:59:34;97841.59;;;42.99;27.81
41886;BME280;27567;43.084;25.616;2022-08-19T11:02:19;97843.47;;;43.83;26.73
41886;BME280;27567;43.084;25.616;2022-08-19T11:05:03;97839.78;;;42.89;27.40
41886;BME280;27567;43.084;25.616;2022-08-19T11:07:47;97843.31;;;42.49;27.73
41886;BME280;27567;43.084;25.616;2022-08-19T11:10:35;97843.38;;;43.70;26.28
41886;BME280;27567;43.084;25.616;2022-08-19T11:13:20;97848.56;;;43.72;25.59
41886;BME280;27567;43.084;25.616;2022-08-19T11:16:08;97834.34;;;46.50;22.88
41886;BME280;27567;43.084;25.616;2022-08-19T11:18:54;97837.41;;;45.39;24.25
41886;BME280;27567;43.084;25.616;2022-08-19T11:21:44;97832.75;;;43.58;24.74
41886;BME280;27567;43.084;25.616;2022-08-19T11:24:29;97834.78;;;42.53;26.25
41886;BME280;27567;43.084;25.616;2022-08-19T11:27:14;97836.59;;;43.84;24.72
41886;BME280;27567;43.084;25.616;2022-08-19T11:29:59;97832.09;;;45.54;22.72
41886;BME280;27567;43.084;25.616;2022-08-19T11:32:44;97843.94;;;43.61;24.58
41886;BME280;27567;43.084;25.616;2022-08-19T11:35:28;97834.38;;;43.18;25.56
41886;BME280;27567;43.084;25.616;2022-08-19T11:38:12;97824.25;;;43.21;24.66
41886;BME280;27567;43.084;25.616;2022-08-19T11:40:59;97819.41;;;42.81;26.34
41886;BME280;27567;43.084;25.616;2022-08-19T11:43:43;97824.69;;;47.27;21.78
41886;BME280;27567;43.084;25.616;2022-08-19T11:46:28;97811.03;;;47.13;20.87
41886;BME280;27567;43.084;25.616;2022-08-19T11:49:15;97811.66;;;44.49;23.82
41886;BME280;27567;43.084;25.616;2022-08-19T11:51:59;97813.22;;;43.67;24.88
41886;BME280;27567;43.084;25.616;2022-08-19T11:54:43;97816.59;;;44.74;23.72
41886;BME280;27567;43.084;25.616;2022-08-19T11:57:28;97798.06;;;46.10;21.83
41886;BME280;27567;43.084;25.616;2022-08-19T12:00:13;97812.28;;;43.90;23.80
41886;BME280;27567;43.084;25.616;2022-08-19T12:02:57;97802.41;;;44.15;22.84
41886;BME280;27567;43.084;25.616;2022-08-19T12:05:42;97807.34;;;45.84;21.44
41886;BME280;27567;43.084;25.616;2022-08-19T12:08:26;97800.41;;;47.58;19.80
41886;BME280;27567;43.084;25.616;2022-08-19T12:11:11;97801.09;;;48.12;18.48
41886;BME280;27567;43.084;25.616;2022-08-19T12:13:56;97794.59;;;46.63;19.07
41886;BME280;27567;43.084;25.616;2022-08-19T12:16:44;97791.31;;;47.31;18.89
41886;BME280;27567;43.084;25.616;2022-08-19T12:19:29;97789.25;;;46.30;19.21
41886;BME280;27567;43.084;25.616;2022-08-19T12:22:13;97784.31;;;46.78;19.01
41886;BME280;27567;43.084;25.616;2022-08-19T12:24:58;97781.44;;;47.86;18.44
41886;BME280;27567;43.084;25.616;2022-08-19T12:27:42;97775.38;;;46.22;19.96
41886;BME280;27567;43.084;25.616;2022-08-19T12:30:26;97776.19;;;44.14;21.47
41886;BME280;27567;43.084;25.616;2022-08-19T12:33:10;97761.31;;;43.61;22.10
41886;BME280;27567;43.084;25.616;2022-08-19T12:35:55;97773.41;;;41.96;23.34
41886;BME280;27567;43.084;25.616;2022-08-19T12:38:43;97779.06;;;43.61;22.52
41886;BME280;27567;43.084;25.616;2022-08-19T12:41:28;97776.53;;;43.30;23.11
41886;BME280;27567;43.084;25.616;2022-08-19T12:44:11;97776.59;;;45.05;21.63
41886;BME280;27567;43.084;25.616;2022-08-19T12:46:57;97762.13;;;46.19;20.21
41886;BME280;27567;43.084;25.616;2022-08-19T12:49:41;97772.97;;;45.17;20.10
41886;BME280;27567;43.084;25.616;2022-08-19T12:52:26;97769.44;;;45.69;19.83
41886;BME280;27567;43.084;25.616;2022-08-19T12:55:10;97766.72;;;47.06;18.70
41886;BME280;27567;43.084;25.616;2022-08-19T12:57:55;97765.94;;;47.37;19.81
41886;BME280;27567;43.084;25.616;2022-08-19T13:00:40;97769.69;;;47.02;19.97
41886;BME280;27567;43.084;25.616;2022-08-19T13:03:24;97765.47;;;44.39;22.16
41886;BME280;27567;43.084;25.616;2022-08-19T13:06:12;97758.69;;;43.17;23.51
41886;BME280;27567;43.084;25.616;2022-08-19T13:08:57;97758.00;;;44.16;22.93
41886;BME280;27567;43.084;25.616;2022-08-19T13:11:41;97763.38;;;40.75;26.50
41886;BME280;27567;43.084;25.616;2022-08-19T13:14:27;97770.44;;;38.10;31.48
41886;BME280;27567;43.084;25.616;2022-08-19T13:17:10;97750.69;;;36.38;33.71
41886;BME280;27567;43.084;25.616;2022-08-19T13:19:55;97759.19;;;37.49;32.68
41886;BME280;27567;43.084;25.616;2022-08-19T13:22:39;97756.38;;;36.53;35.37
41886;BME280;27567;43.084;25.616;2022-08-19T13:25:23;97758.81;;;36.06;37.22
41886;BME280;27567;43.084;25.616;2022-08-19T13:28:09;97760.81;;;38.44;31.34
41886;BME280;27567;43.084;25.616;2022-08-19T13:30:53;97751.22;;;40.85;27.62
41886;BME280;27567;43.084;25.616;2022-08-19T13:33:55;97758.53;;;41.13;27.42
41886;BME280;27567;43.084;25.616;2022-08-19T13:36:40;97750.28;;;40.61;27.85
41886;BME280;27567;43.084;25.616;2022-08-19T13:39:24;97739.34;;;44.51;23.39
41886;BME280;27567;43.084;25.616;2022-08-19T13:42:08;97735.28;;;45.08;22.89
41886;BME280;27567;43.084;25.616;2022-08-19T13:44:54;97744.06;;;42.85;25.56
41886;BME280;27567;43.084;25.616;2022-08-19T13:47:38;97742.00;;;44.42;23.67
41886;BME280;27567;43.084;25.616;2022-08-19T13:50:30;97743.50;;;45.44;22.19
41886;BME280;27567;43.084;25.616;2022-08-19T13:53:15;97736.38;;;44.84;23.16
41886;BME280;27567;43.084;25.616;2022-08-19T13:55:59;97736.00;;;46.60;21.29
41886;BME280;27567;43.084;25.616;2022-08-19T13:58:43;97735.09;;;46.85;20.55
41886;BME280;27567;43.084;25.616;2022-08-19T14:01:27;97738.72;;;45.02;22.39
41886;BME280;27567;43.084;25.616;2022-08-19T14:04:12;97731.81;;;46.87;20.74
41886;BME280;27567;43.084;25.616;2022-08-19T14:06:56;97727.41;;;46.28;21.23
41886;BME280;27567;43.084;25.616;2022-08-19T14:09:40;97726.94;;;43.49;23.65
41886;BME280;27567;43.084;25.616;2022-08-19T14:12:24;97733.88;;;43.81;23.73
41886;BME280;27567;43.084;25.616;2022-08-19T14:15:09;97738.75;;;43.44;23.83
41886;BME280;27567;43.084;25.616;2022-08-19T14:17:54;97736.34;;;44.42;22.59
41886;BME280;27567;43.084;25.616;2022-08-19T14:20:38;97734.97;;;45.06;21.84
41886;BME280;27567;43.084;25.616;2022-08-19T14:23:22;97735.47;;;45.30;22.04
41886;BME280;27567;43.084;25.616;2022-08-19T14:26:12;97740.59;;;43.51;23.38
41886;BME280;27567;43.084;25.616;2022-08-19T14:28:57;97741.00;;;39.83;27.64
41886;BME280;27567;43.084;25.616;2022-08-19T14:31:41;97743.66;;;41.95;25.52
41886;BME280;27567;43.084;25.616;2022-08-19T14:34:26;97738.47;;;43.02;23.76